createdAt,value
2022-11-12T00:02:20.855Z,8.81
2022-11-12T00:05:06.609Z,8.82
2022-11-12T00:07:52.245Z,8.79
2022-11-12T00:10:38.169Z,8.77
2022-11-12T00:13:23.597Z,8.72
2022-11-12T00:16:10.058Z,8.68
2022-11-12T00:18:55.448Z,8.65
2022-11-12T00:21:41.159Z,8.65
2022-11-12T00:24:26.853Z,8.60
2022-11-12T00:27:12.492Z,8.52
2022-11-12T00:29:58.372Z,8.49
2022-11-12T00:32:44.304Z,8.49
2022-11-12T00:35:31.207Z,8.48
2022-11-12T00:38:16.627Z,8.45
2022-11-12T00:41:02.290Z,8.43
2022-11-12T00:43:48.058Z,8.42
2022-11-12T00:46:33.905Z,8.47
2022-11-12T00:49:19.674Z,8.48
2022-11-12T00:52:05.371Z,8.50
2022-11-12T00:54:50.988Z,8.52
2022-11-12T00:57:36.455Z,8.53
2022-11-12T01:00:22.176Z,8.55
2022-11-12T01:03:07.960Z,8.55
2022-11-12T01:05:53.507Z,8.53
2022-11-12T01:08:39.781Z,8.51
2022-11-12T01:11:45.096Z,8.54
2022-11-12T01:14:30.764Z,8.52
2022-11-12T01:17:16.569Z,8.51
2022-11-12T01:20:02.284Z,8.51
2022-11-12T01:22:47.926Z,8.51
2022-11-12T01:25:33.649Z,8.50
2022-11-12T01:28:19.112Z,8.52
2022-11-12T01:31:15.466Z,8.54
2022-11-12T01:34:02.961Z,8.55
2022-11-12T01:36:48.595Z,8.56
2022-11-12T01:39:34.510Z,8.56
2022-11-12T01:42:20.122Z,8.56
2022-11-12T01:45:16.055Z,8.56
2022-11-12T01:48:02.613Z,8.55
2022-11-12T01:50:48.758Z,8.54
2022-11-12T01:53:37.115Z,8.58
2022-11-12T01:56:24.022Z,8.62
2022-11-12T01:59:14.289Z,8.63
2022-11-12T02:01:59.917Z,8.62
2022-11-12T02:04:46.508Z,8.65
2022-11-12T02:07:32.815Z,8.65
2022-11-12T02:10:19.049Z,8.68
2022-11-12T02:13:23.458Z,8.70
2022-11-12T02:16:09.555Z,8.71
2022-11-12T02:18:54.882Z,8.72
2022-11-12T02:21:40.516Z,8.75
2022-11-12T02:24:26.363Z,8.75
2022-11-12T02:27:12.128Z,8.76
2022-11-12T02:29:57.760Z,8.76
2022-11-12T02:32:43.598Z,8.74
2022-11-12T02:35:29.327Z,8.74
2022-11-12T02:38:14.876Z,8.74
2022-11-12T02:41:01.205Z,8.74
2022-11-12T02:43:46.799Z,8.75
2022-11-12T02:46:32.532Z,8.74
2022-11-12T02:49:18.112Z,8.71
2022-11-12T02:52:03.956Z,8.74
2022-11-12T02:54:49.608Z,8.76
2022-11-12T02:57:35.700Z,8.75
2022-11-12T03:00:21.031Z,8.76
2022-11-12T03:03:06.871Z,8.75
2022-11-12T03:06:01.037Z,8.77
2022-11-12T03:08:46.421Z,8.77
2022-11-12T03:11:31.916Z,8.79
2022-11-12T03:14:17.492Z,8.80
2022-11-12T03:17:03.563Z,8.83
2022-11-12T03:19:48.962Z,8.86
2022-11-12T03:22:34.579Z,8.90
2022-11-12T03:25:20.432Z,8.92
2022-11-12T03:28:07.804Z,8.93
2022-11-12T03:30:57.075Z,8.94
2022-11-12T03:33:42.567Z,8.98
2022-11-12T03:36:28.323Z,9.03
2022-11-12T03:39:13.468Z,9.07
2022-11-12T03:41:58.744Z,9.07
2022-11-12T03:44:44.323Z,9.06
2022-11-12T03:47:30.943Z,8.45
2022-11-12T03:50:18.315Z,9.08
2022-11-12T03:53:04.336Z,9.07
2022-11-12T03:55:50.095Z,9.07
2022-11-12T03:58:35.787Z,9.07
2022-11-12T04:01:21.242Z,9.07
2022-11-12T04:04:07.030Z,9.10
2022-11-12T04:07:11.056Z,9.12
2022-11-12T04:09:56.579Z,9.12
2022-11-12T04:13:00.797Z,9.13
2022-11-12T04:16:05.856Z,9.14
2022-11-12T04:19:10.664Z,9.13
2022-11-12T04:22:01.164Z,9.14
2022-11-12T04:25:05.374Z,9.15
2022-11-12T04:27:50.769Z,9.17
2022-11-12T04:30:36.276Z,9.18
2022-11-12T04:33:21.917Z,9.19
2022-11-12T04:36:07.178Z,9.19
2022-11-12T04:38:52.690Z,9.21
2022-11-12T04:41:57.267Z,9.23
2022-11-12T04:45:01.866Z,9.28
2022-11-12T04:47:47.527Z,9.28
2022-11-12T04:50:33.505Z,9.27
2022-11-12T04:53:19.200Z,9.25
2022-11-12T04:56:04.888Z,9.27
2022-11-12T04:58:50.686Z,9.29
2022-11-12T05:01:36.457Z,9.30
2022-11-12T05:04:22.275Z,9.32
2022-11-12T05:09:53.503Z,9.31
2022-11-12T05:12:39.574Z,9.31
2022-11-12T05:15:24.971Z,9.32
2022-11-12T05:18:10.560Z,9.36
2022-11-12T05:20:56.263Z,9.37
2022-11-12T05:23:41.817Z,9.40
2022-11-12T05:26:27.673Z,9.43
2022-11-12T05:29:13.552Z,9.47
2022-11-12T05:31:59.064Z,9.50
2022-11-12T05:34:45.367Z,9.52
2022-11-12T05:37:30.969Z,9.51
2022-11-12T05:40:16.527Z,9.51
2022-11-12T05:43:02.461Z,9.53
2022-11-12T05:45:48.037Z,9.56
2022-11-12T05:48:33.385Z,9.60
2022-11-12T05:51:19.085Z,9.64
2022-11-12T05:54:04.802Z,9.70
2022-11-12T05:56:51.708Z,9.72
2022-11-12T05:59:37.318Z,9.75
2022-11-12T06:02:23.105Z,9.80
2022-11-12T06:05:08.866Z,9.79
2022-11-12T06:07:54.763Z,9.80
2022-11-12T06:10:40.626Z,9.85
2022-11-12T06:13:26.369Z,9.89
2022-11-12T06:16:12.282Z,9.90
2022-11-12T06:18:58.460Z,9.93
2022-11-12T06:21:43.912Z,9.95
2022-11-12T06:24:34.914Z,10.02
2022-11-12T06:27:21.097Z,10.10
2022-11-12T06:30:07.383Z,10.12
2022-11-12T06:32:53.436Z,10.16
2022-11-12T06:35:42.767Z,10.17
2022-11-12T06:38:31.871Z,10.18
2022-11-12T06:41:17.445Z,10.20
2022-11-12T06:44:04.448Z,10.26
2022-11-12T06:46:50.227Z,10.27
2022-11-12T06:49:35.925Z,10.28
2022-11-12T06:52:21.249Z,10.37
2022-11-12T06:55:08.553Z,10.41
2022-11-12T06:57:54.366Z,10.41
2022-11-12T07:00:40.153Z,10.38
2022-11-12T07:03:25.420Z,10.41
2022-11-12T07:06:12.522Z,10.50
2022-11-12T07:08:57.905Z,10.52
2022-11-12T07:11:43.520Z,10.50
2022-11-12T07:14:29.184Z,10.53
2022-11-12T07:17:14.755Z,10.57
2022-11-12T07:20:03.836Z,10.67
2022-11-12T07:22:49.801Z,10.83
2022-11-12T07:25:35.489Z,10.87
2022-11-12T07:28:21.510Z,10.86
2022-11-12T07:31:11.109Z,10.89
2022-11-12T07:33:56.716Z,10.88
2022-11-12T07:36:42.340Z,10.94
2022-11-12T07:39:27.550Z,11.08
2022-11-12T07:42:13.177Z,11.15
2022-11-12T07:44:59.085Z,11.17
2022-11-12T07:47:45.318Z,11.15
2022-11-12T07:50:31.004Z,11.16
2022-11-12T07:53:16.326Z,11.15
2022-11-12T07:56:02.464Z,11.18
2022-11-12T07:58:48.454Z,11.20
2022-11-12T08:01:35.462Z,11.21
2022-11-12T08:04:21.128Z,11.18
2022-11-12T08:07:06.860Z,11.17
2022-11-12T08:09:52.407Z,11.17
2022-11-12T08:12:38.042Z,11.17
2022-11-12T08:15:23.870Z,11.19
2022-11-12T08:18:09.456Z,11.20
2022-11-12T08:21:01.732Z,11.23
2022-11-12T08:23:47.249Z,11.28
2022-11-12T08:26:32.579Z,11.31
2022-11-12T08:29:18.562Z,11.40
2022-11-12T08:32:04.230Z,11.43
2022-11-12T08:34:49.770Z,11.35
2022-11-12T08:37:35.538Z,11.30
2022-11-12T08:40:20.695Z,11.37
2022-11-12T08:43:07.383Z,11.43
2022-11-12T08:45:53.093Z,11.54
2022-11-12T08:48:40.284Z,11.58
2022-11-12T08:51:26.316Z,11.56
2022-11-12T08:54:12.124Z,11.55
2022-11-12T08:56:57.759Z,11.48
2022-11-12T08:59:43.472Z,11.40
2022-11-12T09:02:31.402Z,11.42
2022-11-12T09:05:16.768Z,11.41
2022-11-12T09:08:05.118Z,11.38
2022-11-12T09:10:51.457Z,11.48
2022-11-12T09:13:36.851Z,11.53
2022-11-12T09:16:24.269Z,11.48
2022-11-12T09:19:12.156Z,11.38
2022-11-12T09:21:57.816Z,11.33
2022-11-12T09:24:43.654Z,11.47
2022-11-12T09:27:30.712Z,11.63
2022-11-12T09:30:16.378Z,11.65
2022-11-12T09:33:02.106Z,11.51
2022-11-12T09:35:47.993Z,11.49
2022-11-12T09:38:33.489Z,11.45
2022-11-12T09:41:24.202Z,11.49
2022-11-12T09:44:16.196Z,11.49
2022-11-12T09:47:13.552Z,11.52
2022-11-12T09:50:11.072Z,11.58
2022-11-12T09:53:01.048Z,11.57
2022-11-12T09:55:48.763Z,11.58
2022-11-12T09:58:34.624Z,11.66
2022-11-12T10:01:26.081Z,11.66
2022-11-12T10:04:17.311Z,11.66
2022-11-12T10:07:14.521Z,11.77
2022-11-12T10:10:10.509Z,11.81
2022-11-12T10:13:16.449Z,11.73
2022-11-12T10:16:36.312Z,11.63
2022-11-12T10:19:27.366Z,11.59
2022-11-12T10:22:26.323Z,11.52
2022-11-12T10:25:18.779Z,11.50
2022-11-12T10:28:23.327Z,11.51
2022-11-12T10:31:13.768Z,11.56
2022-11-12T10:34:17.344Z,11.54
2022-11-12T10:37:06.024Z,11.54
2022-11-12T10:39:51.702Z,11.50
2022-11-12T10:42:55.226Z,11.46
2022-11-12T10:45:40.924Z,11.42
2022-11-12T10:48:27.944Z,11.42
2022-11-12T10:51:27.229Z,11.43
2022-11-12T10:54:21.444Z,11.44
2022-11-12T10:57:22.002Z,11.46
2022-11-12T11:00:13.266Z,11.50
2022-11-12T11:02:59.780Z,11.54
2022-11-12T11:05:47.960Z,11.50
2022-11-12T11:08:43.873Z,11.42
2022-11-12T11:11:30.263Z,11.37
2022-11-12T11:14:24.665Z,11.34
2022-11-12T11:17:16.631Z,11.30
2022-11-12T11:20:02.932Z,11.25
2022-11-12T11:22:54.742Z,11.18
2022-11-12T11:25:40.357Z,11.17
2022-11-12T11:28:44.373Z,11.16
2022-11-12T11:31:40.395Z,11.13
2022-11-12T11:34:32.192Z,11.10
2022-11-12T11:37:25.892Z,11.13
2022-11-12T11:40:17.457Z,11.13
2022-11-12T11:43:12.280Z,11.12
2022-11-12T11:46:03.238Z,11.14
2022-11-12T11:49:07.428Z,11.12
2022-11-12T11:51:53.096Z,11.10
2022-11-12T11:54:47.854Z,11.09
2022-11-12T11:57:43.053Z,11.03
2022-11-12T12:00:34.183Z,11.02
2022-11-12T12:03:19.754Z,10.93
2022-11-12T12:06:13.857Z,10.90
2022-11-12T12:09:08.334Z,10.90
2022-11-12T12:12:04.573Z,10.88
2022-11-12T12:14:59.619Z,10.87
2022-11-12T12:17:47.931Z,10.86
2022-11-12T12:20:40.212Z,10.82
2022-11-12T12:23:29.039Z,10.83
2022-11-12T12:26:16.536Z,10.79
2022-11-12T12:29:06.729Z,10.75
2022-11-12T12:31:58.977Z,10.73
2022-11-12T12:34:47.853Z,10.72
2022-11-12T12:37:36.201Z,10.68
2022-11-12T12:40:44.560Z,10.64
2022-11-12T12:43:35.361Z,10.62
2022-11-12T12:46:23.296Z,10.62
2022-11-12T12:49:14.165Z,10.63
2022-11-12T12:52:00.547Z,10.61
2022-11-12T12:54:48.756Z,10.61
2022-11-12T12:57:34.635Z,10.60
2022-11-12T13:00:35.270Z,10.61
2022-11-12T13:03:39.011Z,10.62
2022-11-12T13:06:27.629Z,10.63
2022-11-12T13:09:14.952Z,10.67
2022-11-12T13:12:06.643Z,10.69
2022-11-12T13:14:54.521Z,10.72
2022-11-12T13:17:45.190Z,10.75
2022-11-12T13:20:34.496Z,10.77
2022-11-12T13:23:58.434Z,10.79
2022-11-12T13:26:46.844Z,10.81
2022-11-12T13:29:32.153Z,10.83
2022-11-12T13:32:43.972Z,10.85
2022-11-12T13:35:35.042Z,10.86
2022-11-12T13:38:20.722Z,10.89
2022-11-12T13:41:40.391Z,10.89
2022-11-12T13:44:27.305Z,10.92
2022-11-12T13:47:18.397Z,10.94
2022-11-12T13:50:07.004Z,11.00
2022-11-12T13:52:53.009Z,11.03
2022-11-12T13:55:47.623Z,11.04
2022-11-12T13:58:34.599Z,11.06
2022-11-12T14:01:21.285Z,11.07
2022-11-12T14:04:11.044Z,11.06
2022-11-12T14:07:03.927Z,11.08
2022-11-12T14:10:08.043Z,11.09
2022-11-12T14:13:07.005Z,11.07
2022-11-12T14:16:10.609Z,11.07
2022-11-12T14:19:06.231Z,11.09
2022-11-12T14:22:10.162Z,11.11
2022-11-12T14:25:00.253Z,11.11
2022-11-12T14:27:46.671Z,11.13
2022-11-12T14:30:32.330Z,11.13
2022-11-12T14:33:19.184Z,11.13
2022-11-12T14:36:06.615Z,11.13
2022-11-12T14:38:54.039Z,11.14
2022-11-12T14:41:42.901Z,11.16
2022-11-12T14:44:35.751Z,11.18
2022-11-12T14:47:21.704Z,11.18
2022-11-12T14:50:09.399Z,11.19
2022-11-12T14:53:15.421Z,11.21
2022-11-12T14:56:03.737Z,11.25
2022-11-12T14:58:50.217Z,11.26
2022-11-12T15:02:20.670Z,11.25
2022-11-12T15:04:51.495Z,11.25
2022-11-12T15:07:51.131Z,11.26
2022-11-12T15:10:38.181Z,11.30
2022-11-12T15:16:13.817Z,11.32
2022-11-12T15:19:02.525Z,11.34
2022-11-12T15:21:52.685Z,11.31
2022-11-12T15:24:39.323Z,11.31
2022-11-12T15:27:34.803Z,11.31
2022-11-12T15:30:30.967Z,11.31
2022-11-12T15:33:22.035Z,11.32
2022-11-12T15:36:18.034Z,11.34
2022-11-12T15:39:04.123Z,11.32
2022-11-12T15:41:56.401Z,11.31
2022-11-12T15:44:41.863Z,11.31
2022-11-12T15:47:28.072Z,11.30
2022-11-12T15:50:13.745Z,11.27
2022-11-12T15:52:59.537Z,11.24
2022-11-12T15:55:45.539Z,11.27
2022-11-12T15:58:33.125Z,11.30
2022-11-12T16:01:18.669Z,11.31
2022-11-12T16:04:04.354Z,11.33
2022-11-12T16:06:50.150Z,11.33
2022-11-12T16:09:35.933Z,11.26
2022-11-12T16:12:21.628Z,11.17
2022-11-12T16:15:18.425Z,11.13
2022-11-12T16:18:03.955Z,11.19
2022-11-12T16:20:50.274Z,11.28
2022-11-12T16:23:37.080Z,11.35
2022-11-12T16:26:27.285Z,11.41
2022-11-12T16:29:14.037Z,11.43
2022-11-12T16:31:59.588Z,11.38
2022-11-12T16:34:45.188Z,11.30
2022-11-12T16:37:31.626Z,11.29
2022-11-12T16:40:18.668Z,11.27
2022-11-12T16:43:04.377Z,11.30
2022-11-12T16:45:50.165Z,11.33
2022-11-12T16:48:36.276Z,11.40
2022-11-12T16:51:22.656Z,11.47
2022-11-12T16:54:08.517Z,11.53
2022-11-12T16:56:53.977Z,11.54
2022-11-12T16:59:39.721Z,11.58
2022-11-12T17:02:25.649Z,11.60
2022-11-12T17:05:15.968Z,11.58
2022-11-12T17:08:01.571Z,11.49
2022-11-12T17:10:47.383Z,11.35
2022-11-12T17:13:33.047Z,11.25
2022-11-12T17:16:18.647Z,11.16
2022-11-12T17:19:05.878Z,11.11
2022-11-12T17:21:51.168Z,11.03
2022-11-12T17:24:36.973Z,10.97
2022-11-12T17:27:22.463Z,10.93
2022-11-12T17:30:08.494Z,11.00
2022-11-12T17:32:53.939Z,11.13
2022-11-12T17:35:39.672Z,11.22
2022-11-12T17:38:25.340Z,11.25
2022-11-12T17:41:11.322Z,11.25
2022-11-12T17:43:58.153Z,11.23
2022-11-12T17:46:44.297Z,11.21
2022-11-12T17:49:29.584Z,11.18
2022-11-12T17:52:14.934Z,11.13
2022-11-12T17:55:00.979Z,11.11
2022-11-12T17:57:46.533Z,11.11
2022-11-12T18:00:32.957Z,11.13
2022-11-12T18:03:18.908Z,11.17
2022-11-12T18:06:04.737Z,11.17
2022-11-12T18:08:54.372Z,11.09
2022-11-12T18:11:50.006Z,11.03
2022-11-12T18:14:35.441Z,11.01
2022-11-12T18:17:21.086Z,10.92
2022-11-12T18:20:07.222Z,10.86
2022-11-12T18:22:52.732Z,10.82
2022-11-12T18:25:38.588Z,10.77
2022-11-12T18:28:24.181Z,10.71
2022-11-12T18:31:11.520Z,10.66
2022-11-12T18:33:57.134Z,10.60
2022-11-12T18:36:42.699Z,10.57
2022-11-12T18:39:28.464Z,10.52
2022-11-12T18:42:14.198Z,10.52
2022-11-12T18:45:00.022Z,10.51
2022-11-12T18:47:45.616Z,10.47
2022-11-12T18:50:31.372Z,10.45
2022-11-12T18:53:16.965Z,10.45
2022-11-12T18:56:07.050Z,10.44
2022-11-12T18:58:52.459Z,10.36
2022-11-12T19:01:38.494Z,10.33
2022-11-12T19:04:24.115Z,10.24
2022-11-12T19:07:09.811Z,10.20
2022-11-12T19:09:55.183Z,10.14
2022-11-12T19:12:40.650Z,10.14
2022-11-12T19:15:27.116Z,10.18
2022-11-12T19:18:14.137Z,10.24
2022-11-12T19:21:09.707Z,10.35
2022-11-12T19:23:55.996Z,10.53
2022-11-12T19:26:41.524Z,10.69
2022-11-12T19:29:27.045Z,10.80
2022-11-12T19:32:13.752Z,10.86
2022-11-12T19:34:59.525Z,10.92
2022-11-12T19:37:45.135Z,10.94
2022-11-12T19:40:30.944Z,10.71
2022-11-12T19:43:16.672Z,10.99
2022-11-12T19:46:02.542Z,11.00
2022-11-12T19:48:47.965Z,11.03
2022-11-12T19:51:33.551Z,11.01
2022-11-12T19:54:18.805Z,11.01
2022-11-12T19:57:04.459Z,11.03
2022-11-12T19:59:50.239Z,11.05
2022-11-12T20:02:35.952Z,11.04
2022-11-12T20:05:23.975Z,11.02
2022-11-12T20:08:09.573Z,11.01
2022-11-12T20:10:55.362Z,11.01
2022-11-12T20:13:41.199Z,11.02
2022-11-12T20:16:27.015Z,11.01
2022-11-12T20:19:13.065Z,11.00
2022-11-12T20:21:58.936Z,10.98
2022-11-12T20:24:44.804Z,10.97
2022-11-12T20:27:30.706Z,10.99
2022-11-12T20:30:16.469Z,10.94
2022-11-12T20:33:01.824Z,10.86
2022-11-12T20:35:47.595Z,10.74
2022-11-12T20:38:36.046Z,10.62
2022-11-12T20:41:22.511Z,10.52
2022-11-12T20:44:08.168Z,10.44
2022-11-12T20:46:53.615Z,10.34
2022-11-12T20:49:39.248Z,10.25
2022-11-12T20:52:24.926Z,10.21
2022-11-12T20:55:10.593Z,10.15
2022-11-12T20:57:56.204Z,10.06
2022-11-12T21:00:41.930Z,10.00
2022-11-12T21:03:27.965Z,9.93
2022-11-12T21:06:15.376Z,9.87
2022-11-12T21:09:01.112Z,9.82
2022-11-12T21:11:46.573Z,9.78
2022-11-12T21:14:32.258Z,9.72
2022-11-12T21:17:19.801Z,9.70
2022-11-12T21:20:05.451Z,9.68
2022-11-12T21:22:51.030Z,9.63
2022-11-12T21:25:37.126Z,9.61
2022-11-12T21:28:22.548Z,9.60
2022-11-12T21:31:09.446Z,9.57
2022-11-12T21:33:55.875Z,9.55
2022-11-12T21:36:41.173Z,9.55
2022-11-12T21:39:26.839Z,9.51
2022-11-12T21:42:12.432Z,9.49
2022-11-12T21:44:58.247Z,9.47
2022-11-12T21:47:43.878Z,9.51
2022-11-12T21:50:29.669Z,9.53
2022-11-12T21:53:15.417Z,9.51
2022-11-12T21:56:02.680Z,9.53
2022-11-12T21:58:48.170Z,9.56
2022-11-12T22:01:34.656Z,9.56
2022-11-12T22:04:20.121Z,9.53
2022-11-12T22:07:06.055Z,9.50
2022-11-12T22:09:56.325Z,9.57
2022-11-12T22:12:58.546Z,9.63
2022-11-12T22:15:47.847Z,9.69
2022-11-12T22:18:34.485Z,9.75
2022-11-12T22:21:40.080Z,9.71
2022-11-12T22:24:25.632Z,9.61
2022-11-12T22:27:10.923Z,9.55
2022-11-12T22:29:56.635Z,9.52
2022-11-12T22:32:42.608Z,9.49
2022-11-12T22:35:28.345Z,9.49
2022-11-12T22:38:14.013Z,9.56
2022-11-12T22:41:03.609Z,9.57
2022-11-12T22:43:50.252Z,9.53
2022-11-12T22:46:35.639Z,9.51
2022-11-12T22:49:21.528Z,9.53
2022-11-12T22:52:07.285Z,9.50
2022-11-12T22:54:52.917Z,9.46
2022-11-12T22:57:40.065Z,9.50
2022-11-12T23:00:30.747Z,9.50
2022-11-12T23:03:16.289Z,9.44
2022-11-12T23:06:06.093Z,9.35
2022-11-12T23:08:52.799Z,9.33
2022-11-12T23:11:38.570Z,9.38
2022-11-12T23:14:24.300Z,9.49
2022-11-12T23:17:09.911Z,9.53
2022-11-12T23:19:55.507Z,9.59
2022-11-12T23:22:41.461Z,9.61
2022-11-12T23:25:27.186Z,9.60
2022-11-12T23:28:12.996Z,9.59
2022-11-12T23:30:58.549Z,9.61
2022-11-12T23:33:45.552Z,9.64
2022-11-12T23:36:31.851Z,9.61
2022-11-12T23:39:17.613Z,9.58
2022-11-12T23:42:03.258Z,9.49
2022-11-12T23:44:48.971Z,9.46
2022-11-12T23:47:34.604Z,9.52
2022-11-12T23:50:20.481Z,9.55
2022-11-12T23:53:06.372Z,9.48
2022-11-12T23:55:52.141Z,9.41
2022-11-12T23:58:38.591Z,9.35
